sensor_id;sensor_type;location;lat;lon;timestamp;P1;durP1;ratioP1;P2;durP2;ratioP2
78013;SDS011;67222;50.182;8.734;2023-04-06T04:32:13;9.98;;;5.38;;
78013;SDS011;67222;50.182;8.734;2023-04-06T04:34:39;11.07;;;5.03;;
78013;SDS011;67222;50.182;8.734;2023-04-06T04:37:07;10.18;;;4.97;;
78013;SDS011;67222;50.182;8.734;2023-04-06T04:39:32;8.63;;;4.75;;
78013;SDS011;67222;50.182;8.734;2023-04-06T04:41:57;8.75;;;4.85;;
78013;SDS011;67222;50.182;8.734;2023-04-06T04:44:23;9.43;;;5.40;;
78013;SDS011;67222;50.182;8.734;2023-04-06T04:46:48;8.63;;;5.00;;
78013;SDS011;67222;50.182;8.734;2023-04-06T04:49:13;9.67;;;5.23;;
78013;SDS011;67222;50.182;8.734;2023-04-06T04:51:39;13.95;;;5.65;;
78013;SDS011;67222;50.182;8.734;2023-04-06T04:54:04;8.68;;;5.05;;
78013;SDS011;67222;50.182;8.734;2023-04-06T04:56:30;11.90;;;5.65;;
78013;SDS011;67222;50.182;8.734;2023-04-06T04:58:55;9.10;;;5.17;;
78013;SDS011;67222;50.182;8.734;2023-04-06T05:01:20;8.65;;;5.18;;
78013;SDS011;67222;50.182;8.734;2023-04-06T05:03:46;9.35;;;5.00;;
78013;SDS011;67222;50.182;8.734;2023-04-06T05:06:11;9.02;;;4.50;;
78013;SDS011;67222;50.182;8.734;2023-04-06T05:08:37;10.97;;;5.53;;
78013;SDS011;67222;50.182;8.734;2023-04-06T05:11:02;9.68;;;4.55;;
78013;SDS011;67222;50.182;8.734;2023-04-06T05:13:29;11.13;;;5.45;;
78013;SDS011;67222;50.182;8.734;2023-04-06T05:15:55;8.98;;;5.13;;
78013;SDS011;67222;50.182;8.734;2023-04-06T05:18:20;10.43;;;5.60;;
78013;SDS011;67222;50.182;8.734;2023-04-06T05:20:46;9.02;;;5.28;;
78013;SDS011;67222;50.182;8.734;2023-04-06T05:23:13;9.77;;;4.97;;
78013;SDS011;67222;50.182;8.734;2023-04-06T05:25:38;10.55;;;5.15;;
78013;SDS011;67222;50.182;8.734;2023-04-06T05:28:03;10.60;;;5.70;;
78013;SDS011;67222;50.182;8.734;2023-04-06T05:30:29;14.48;;;5.57;;
78013;SDS011;67222;50.182;8.734;2023-04-06T05:32:55;9.02;;;5.97;;
78013;SDS011;67222;50.182;8.734;2023-04-06T05:35:20;8.85;;;5.32;;
78013;SDS011;67222;50.182;8.734;2023-04-06T05:37:45;9.45;;;5.97;;
78013;SDS011;67222;50.182;8.734;2023-04-06T05:40:11;11.63;;;5.85;;
78013;SDS011;67222;50.182;8.734;2023-04-06T05:42:40;10.10;;;5.53;;
78013;SDS011;67222;50.182;8.734;2023-04-06T05:45:07;12.20;;;5.57;;
78013;SDS011;67222;50.182;8.734;2023-04-06T05:47:34;11.30;;;6.07;;
78013;SDS011;67222;50.182;8.734;2023-04-06T05:50:00;10.93;;;5.95;;
78013;SDS011;67222;50.182;8.734;2023-04-06T05:52:25;11.93;;;5.95;;
78013;SDS011;67222;50.182;8.734;2023-04-06T05:54:51;14.10;;;5.95;;
78013;SDS011;67222;50.182;8.734;2023-04-06T05:57:17;13.73;;;6.40;;
78013;SDS011;67222;50.182;8.734;2023-04-06T05:59:42;12.70;;;5.97;;
78013;SDS011;67222;50.182;8.734;2023-04-06T06:02:07;19.15;;;6.65;;
78013;SDS011;67222;50.182;8.734;2023-04-06T06:04:33;10.35;;;6.15;;
78013;SDS011;67222;50.182;8.734;2023-04-06T06:06:59;15.82;;;5.75;;
78013;SDS011;67222;50.182;8.734;2023-04-06T06:09:25;13.63;;;6.50;;
78013;SDS011;67222;50.182;8.734;2023-04-06T06:11:51;14.98;;;6.47;;
78013;SDS011;67222;50.182;8.734;2023-04-06T06:14:16;10.32;;;6.03;;
78013;SDS011;67222;50.182;8.734;2023-04-06T06:16:41;8.95;;;6.25;;
78013;SDS011;67222;50.182;8.734;2023-04-06T06:19:07;9.73;;;6.15;;
78013;SDS011;67222;50.182;8.734;2023-04-06T06:21:32;11.23;;;6.43;;
78013;SDS011;67222;50.182;8.734;2023-04-06T06:23:57;9.95;;;5.82;;
78013;SDS011;67222;50.182;8.734;2023-04-06T06:26:23;10.88;;;6.10;;
78013;SDS011;67222;50.182;8.734;2023-04-06T06:28:48;10.13;;;5.97;;
78013;SDS011;67222;50.182;8.734;2023-04-06T06:31:13;10.60;;;6.07;;
78013;SDS011;67222;50.182;8.734;2023-04-06T06:33:39;11.55;;;6.28;;
78013;SDS011;67222;50.182;8.734;2023-04-06T06:36:04;10.60;;;6.30;;
78013;SDS011;67222;50.182;8.734;2023-04-06T06:38:30;9.40;;;6.45;;
78013;SDS011;67222;50.182;8.734;2023-04-06T06:40:55;9.95;;;6.43;;
78013;SDS011;67222;50.182;8.734;2023-04-06T06:43:20;9.25;;;5.97;;
78013;SDS011;67222;50.182;8.734;2023-04-06T06:45:46;9.47;;;6.50;;
78013;SDS011;67222;50.182;8.734;2023-04-06T06:48:11;10.95;;;6.20;;
78013;SDS011;67222;50.182;8.734;2023-04-06T06:50:37;11.75;;;6.40;;
78013;SDS011;67222;50.182;8.734;2023-04-06T06:53:02;12.60;;;6.30;;
78013;SDS011;67222;50.182;8.734;2023-04-06T06:55:27;13.68;;;7.22;;
78013;SDS011;67222;50.182;8.734;2023-04-06T06:57:53;9.70;;;6.63;;
78013;SDS011;67222;50.182;8.734;2023-04-06T07:00:18;10.65;;;6.82;;
78013;SDS011;67222;50.182;8.734;2023-04-06T07:02:46;12.90;;;7.05;;
78013;SDS011;67222;50.182;8.734;2023-04-06T07:05:12;11.30;;;6.78;;
78013;SDS011;67222;50.182;8.734;2023-04-06T07:07:37;11.32;;;6.30;;
78013;SDS011;67222;50.182;8.734;2023-04-06T07:10:02;11.03;;;5.97;;
78013;SDS011;67222;50.182;8.734;2023-04-06T07:12:28;11.90;;;6.53;;
78013;SDS011;67222;50.182;8.734;2023-04-06T07:14:53;11.70;;;5.97;;
78013;SDS011;67222;50.182;8.734;2023-04-06T07:17:19;11.18;;;7.15;;
78013;SDS011;67222;50.182;8.734;2023-04-06T07:19:44;9.35;;;6.05;;
78013;SDS011;67222;50.182;8.734;2023-04-06T07:22:10;11.48;;;6.13;;
78013;SDS011;67222;50.182;8.734;2023-04-06T07:24:36;11.63;;;6.10;;
78013;SDS011;67222;50.182;8.734;2023-04-06T07:27:01;9.40;;;6.03;;
78013;SDS011;67222;50.182;8.734;2023-04-06T07:29:27;11.65;;;7.10;;
78013;SDS011;67222;50.182;8.734;2023-04-06T07:31:53;10.57;;;6.50;;
78013;SDS011;67222;50.182;8.734;2023-04-06T07:34:18;11.20;;;6.45;;
78013;SDS011;67222;50.182;8.734;2023-04-06T07:36:44;11.60;;;6.80;;
78013;SDS011;67222;50.182;8.734;2023-04-06T07:39:09;9.32;;;6.35;;
78013;SDS011;67222;50.182;8.734;2023-04-06T07:41:35;11.25;;;6.75;;
78013;SDS011;67222;50.182;8.734;2023-04-06T07:44:01;11.05;;;6.72;;
78013;SDS011;67222;50.182;8.734;2023-04-06T07:46:26;11.00;;;6.73;;
78013;SDS011;67222;50.182;8.734;2023-04-06T07:48:51;14.20;;;7.13;;
78013;SDS011;67222;50.182;8.734;2023-04-06T07:51:17;13.07;;;7.45;;
78013;SDS011;67222;50.182;8.734;2023-04-06T07:53:43;14.77;;;7.55;;
78013;SDS011;67222;50.182;8.734;2023-04-06T07:56:09;11.45;;;6.75;;
78013;SDS011;67222;50.182;8.734;2023-04-06T07:58:34;13.75;;;7.13;;
78013;SDS011;67222;50.182;8.734;2023-04-06T08:01:00;13.13;;;7.38;;
78013;SDS011;67222;50.182;8.734;2023-04-06T08:03:26;9.50;;;6.63;;
78013;SDS011;67222;50.182;8.734;2023-04-06T08:05:52;13.93;;;7.40;;
78013;SDS011;67222;50.182;8.734;2023-04-06T08:08:18;12.13;;;6.95;;
78013;SDS011;67222;50.182;8.734;2023-04-06T08:10:44;16.67;;;7.97;;
78013;SDS011;67222;50.182;8.734;2023-04-06T08:13:09;12.50;;;7.68;;
78013;SDS011;67222;50.182;8.734;2023-04-06T08:15:35;12.52;;;7.50;;
78013;SDS011;67222;50.182;8.734;2023-04-06T08:18:00;12.93;;;6.95;;
78013;SDS011;67222;50.182;8.734;2023-04-06T08:20:25;11.18;;;6.80;;
78013;SDS011;67222;50.182;8.734;2023-04-06T08:22:51;15.23;;;6.78;;
78013;SDS011;67222;50.182;8.734;2023-04-06T08:25:16;13.48;;;6.93;;
78013;SDS011;67222;50.182;8.734;2023-04-06T08:27:41;11.93;;;6.77;;
78013;SDS011;67222;50.182;8.734;2023-04-06T08:30:07;11.50;;;6.90;;
78013;SDS011;67222;50.182;8.734;2023-04-06T08:32:32;8.45;;;4.82;;
78013;SDS011;67222;50.182;8.734;2023-04-06T08:34:58;10.98;;;6.72;;
78013;SDS011;67222;50.182;8.734;2023-04-06T08:37:24;11.52;;;6.78;;
78013;SDS011;67222;50.182;8.734;2023-04-06T08:39:50;11.05;;;6.50;;
78013;SDS011;67222;50.182;8.734;2023-04-06T08:42:19;12.23;;;7.03;;
78013;SDS011;67222;50.182;8.734;2023-04-06T08:44:46;12.90;;;7.13;;
78013;SDS011;67222;50.182;8.734;2023-04-06T08:47:13;9.80;;;6.00;;
78013;SDS011;67222;50.182;8.734;2023-04-06T08:49:38;10.43;;;6.97;;
78013;SDS011;67222;50.182;8.734;2023-04-06T08:52:07;11.55;;;6.25;;
78013;SDS011;67222;50.182;8.734;2023-04-06T08:54:33;11.98;;;7.20;;
78013;SDS011;67222;50.182;8.734;2023-04-06T08:56:59;12.82;;;7.45;;
78013;SDS011;67222;50.182;8.734;2023-04-06T08:59:26;11.93;;;6.45;;
78013;SDS011;67222;50.182;8.734;2023-04-06T09:01:52;15.57;;;7.85;;
78013;SDS011;67222;50.182;8.734;2023-04-06T09:04:19;12.18;;;6.97;;
78013;SDS011;67222;50.182;8.734;2023-04-06T09:06:45;11.45;;;6.63;;
78013;SDS011;67222;50.182;8.734;2023-04-06T09:09:10;11.02;;;6.97;;
78013;SDS011;67222;50.182;8.734;2023-04-06T09:11:46;9.10;;;5.60;;
78013;SDS011;67222;50.182;8.734;2023-04-06T09:14:12;15.65;;;7.00;;
78013;SDS011;67222;50.182;8.734;2023-04-06T09:16:39;9.23;;;6.35;;
78013;SDS011;67222;50.182;8.734;2023-04-06T09:19:05;11.32;;;6.72;;
78013;SDS011;67222;50.182;8.734;2023-04-06T09:21:31;9.45;;;6.38;;
78013;SDS011;67222;50.182;8.734;2023-04-06T09:23:59;10.65;;;6.40;;
78013;SDS011;67222;50.182;8.734;2023-04-06T09:26:25;11.82;;;6.82;;
78013;SDS011;67222;50.182;8.734;2023-04-06T09:28:55;26.70;;;8.50;;
78013;SDS011;67222;50.182;8.734;2023-04-06T09:31:23;11.75;;;6.72;;
78013;SDS011;67222;50.182;8.734;2023-04-06T09:33:52;10.85;;;6.53;;
78013;SDS011;67222;50.182;8.734;2023-04-06T09:36:19;10.80;;;6.75;;
78013;SDS011;67222;50.182;8.734;2023-04-06T09:38:52;12.15;;;7.45;;
78013;SDS011;67222;50.182;8.734;2023-04-06T09:41:24;9.50;;;6.05;;
78013;SDS011;67222;50.182;8.734;2023-04-06T09:46:36;9.13;;;5.85;;
78013;SDS011;67222;50.182;8.734;2023-04-06T09:49:09;10.85;;;6.50;;
78013;SDS011;67222;50.182;8.734;2023-04-06T09:51:39;10.57;;;5.72;;
78013;SDS011;67222;50.182;8.734;2023-04-06T09:54:07;13.30;;;6.32;;
78013;SDS011;67222;50.182;8.734;2023-04-06T09:56:56;8.50;;;5.70;;
78013;SDS011;67222;50.182;8.734;2023-04-06T10:01:58;10.80;;;5.88;;
78013;SDS011;67222;50.182;8.734;2023-04-06T10:06:53;10.90;;;5.90;;
78013;SDS011;67222;50.182;8.734;2023-04-06T10:09:27;11.55;;;5.60;;
78013;SDS011;67222;50.182;8.734;2023-04-06T10:12:00;10.48;;;5.82;;
78013;SDS011;67222;50.182;8.734;2023-04-06T10:14:35;8.75;;;5.47;;
78013;SDS011;67222;50.182;8.734;2023-04-06T10:17:03;10.20;;;5.20;;
78013;SDS011;67222;50.182;8.734;2023-04-06T10:19:41;9.68;;;5.47;;
78013;SDS011;67222;50.182;8.734;2023-04-06T10:22:16;10.52;;;5.35;;
78013;SDS011;67222;50.182;8.734;2023-04-06T10:24:47;10.20;;;5.25;;
78013;SDS011;67222;50.182;8.734;2023-04-06T10:27:13;9.57;;;5.90;;
78013;SDS011;67222;50.182;8.734;2023-04-06T10:29:42;11.75;;;6.10;;
78013;SDS011;67222;50.182;8.734;2023-04-06T10:32:10;9.10;;;6.50;;
78013;SDS011;67222;50.182;8.734;2023-04-06T10:34:35;11.35;;;5.53;;
78013;SDS011;67222;50.182;8.734;2023-04-06T10:37:10;11.25;;;6.20;;
78013;SDS011;67222;50.182;8.734;2023-04-06T10:39:46;9.15;;;5.40;;
78013;SDS011;67222;50.182;8.734;2023-04-06T10:42:13;11.40;;;5.35;;
78013;SDS011;67222;50.182;8.734;2023-04-06T10:44:42;10.98;;;5.45;;
78013;SDS011;67222;50.182;8.734;2023-04-06T10:47:15;10.13;;;5.78;;
78013;SDS011;67222;50.182;8.734;2023-04-06T10:49:43;9.93;;;5.82;;
78013;SDS011;67222;50.182;8.734;2023-04-06T10:52:08;11.60;;;5.72;;
78013;SDS011;67222;50.182;8.734;2023-04-06T10:54:34;9.02;;;5.28;;
78013;SDS011;67222;50.182;8.734;2023-04-06T10:57:06;10.25;;;5.75;;
78013;SDS011;67222;50.182;8.734;2023-04-06T10:59:31;10.25;;;5.10;;
78013;SDS011;67222;50.182;8.734;2023-04-06T11:01:57;9.43;;;5.40;;
78013;SDS011;67222;50.182;8.734;2023-04-06T11:04:22;8.77;;;5.05;;
78013;SDS011;67222;50.182;8.734;2023-04-06T11:06:49;9.98;;;5.50;;
78013;SDS011;67222;50.182;8.734;2023-04-06T11:09:28;10.43;;;5.50;;
78013;SDS011;67222;50.182;8.734;2023-04-06T11:11:54;10.45;;;4.90;;
78013;SDS011;67222;50.182;8.734;2023-04-06T11:14:21;12.75;;;5.80;;
78013;SDS011;67222;50.182;8.734;2023-04-06T11:16:47;10.15;;;5.50;;
78013;SDS011;67222;50.182;8.734;2023-04-06T11:19:16;9.48;;;4.65;;
78013;SDS011;67222;50.182;8.734;2023-04-06T11:21:48;14.23;;;5.35;;
78013;SDS011;67222;50.182;8.734;2023-04-06T11:24:15;8.80;;;5.30;;
78013;SDS011;67222;50.182;8.734;2023-04-06T11:26:48;8.93;;;5.18;;
78013;SDS011;67222;50.182;8.734;2023-04-06T11:29:16;11.80;;;5.18;;
78013;SDS011;67222;50.182;8.734;2023-04-06T11:31:50;10.30;;;5.45;;
78013;SDS011;67222;50.182;8.734;2023-04-06T11:34:17;8.27;;;4.78;;
78013;SDS011;67222;50.182;8.734;2023-04-06T11:36:54;12.60;;;6.47;;
78013;SDS011;67222;50.182;8.734;2023-04-06T11:39:24;11.93;;;5.53;;
78013;SDS011;67222;50.182;8.734;2023-04-06T11:41:52;11.45;;;6.65;;
78013;SDS011;67222;50.182;8.734;2023-04-06T11:44:31;11.25;;;5.47;;
78013;SDS011;67222;50.182;8.734;2023-04-06T11:47:01;10.38;;;5.00;;
78013;SDS011;67222;50.182;8.734;2023-04-06T11:49:29;11.07;;;5.95;;
78013;SDS011;67222;50.182;8.734;2023-04-06T11:51:56;10.13;;;6.65;;
78013;SDS011;67222;50.182;8.734;2023-04-06T11:54:31;9.05;;;5.00;;
78013;SDS011;67222;50.182;8.734;2023-04-06T11:59:27;11.18;;;6.05;;
78013;SDS011;67222;50.182;8.734;2023-04-06T12:01:53;11.20;;;5.18;;
78013;SDS011;67222;50.182;8.734;2023-04-06T12:04:19;10.75;;;5.78;;
78013;SDS011;67222;50.182;8.734;2023-04-06T12:06:45;10.02;;;5.78;;
78013;SDS011;67222;50.182;8.734;2023-04-06T12:09:10;13.35;;;6.00;;
78013;SDS011;67222;50.182;8.734;2023-04-06T12:11:36;11.32;;;5.88;;
78013;SDS011;67222;50.182;8.734;2023-04-06T12:14:01;11.82;;;6.55;;
78013;SDS011;67222;50.182;8.734;2023-04-06T12:16:29;10.68;;;6.25;;
78013;SDS011;67222;50.182;8.734;2023-04-06T12:18:59;9.88;;;5.40;;
78013;SDS011;67222;50.182;8.734;2023-04-06T12:21:25;11.52;;;6.10;;
78013;SDS011;67222;50.182;8.734;2023-04-06T12:23:51;9.98;;;5.70;;
78013;SDS011;67222;50.182;8.734;2023-04-06T12:26:16;10.50;;;6.43;;
78013;SDS011;67222;50.182;8.734;2023-04-06T12:28:42;13.80;;;6.85;;
78013;SDS011;67222;50.182;8.734;2023-04-06T12:31:14;9.38;;;6.10;;
78013;SDS011;67222;50.182;8.734;2023-04-06T12:33:40;14.52;;;5.80;;
78013;SDS011;67222;50.182;8.734;2023-04-06T12:36:10;14.73;;;6.18;;
78013;SDS011;67222;50.182;8.734;2023-04-06T12:38:37;11.65;;;5.93;;
78013;SDS011;67222;50.182;8.734;2023-04-06T12:41:04;10.88;;;5.30;;
78013;SDS011;67222;50.182;8.734;2023-04-06T12:43:30;11.10;;;6.10;;
78013;SDS011;67222;50.182;8.734;2023-04-06T12:45:55;9.17;;;5.13;;
78013;SDS011;67222;50.182;8.734;2023-04-06T12:48:21;9.80;;;5.72;;
78013;SDS011;67222;50.182;8.734;2023-04-06T12:50:53;9.27;;;5.22;;
78013;SDS011;67222;50.182;8.734;2023-04-06T12:53:22;8.98;;;5.50;;
78013;SDS011;67222;50.182;8.734;2023-04-06T12:55:47;10.15;;;5.88;;
78013;SDS011;67222;50.182;8.734;2023-04-06T12:58:13;9.33;;;5.27;;
78013;SDS011;67222;50.182;8.734;2023-04-06T13:00:38;9.10;;;5.55;;
78013;SDS011;67222;50.182;8.734;2023-04-06T13:03:03;10.52;;;5.32;;
78013;SDS011;67222;50.182;8.734;2023-04-06T13:05:29;11.60;;;5.30;;
78013;SDS011;67222;50.182;8.734;2023-04-06T13:07:55;9.73;;;5.40;;
78013;SDS011;67222;50.182;8.734;2023-04-06T13:10:20;9.75;;;4.78;;
78013;SDS011;67222;50.182;8.734;2023-04-06T13:12:45;8.85;;;5.07;;
78013;SDS011;67222;50.182;8.734;2023-04-06T13:15:11;9.48;;;5.95;;
78013;SDS011;67222;50.182;8.734;2023-04-06T13:17:36;10.65;;;5.82;;
78013;SDS011;67222;50.182;8.734;2023-04-06T13:20:02;9.77;;;5.90;;
78013;SDS011;67222;50.182;8.734;2023-04-06T13:22:28;9.80;;;5.38;;
78013;SDS011;67222;50.182;8.734;2023-04-06T13:24:54;8.60;;;5.57;;
78013;SDS011;67222;50.182;8.734;2023-04-06T13:27:19;9.57;;;5.20;;
78013;SDS011;67222;50.182;8.734;2023-04-06T13:29:45;8.50;;;4.88;;
78013;SDS011;67222;50.182;8.734;2023-04-06T13:32:10;9.63;;;5.38;;
78013;SDS011;67222;50.182;8.734;2023-04-06T13:34:35;8.00;;;4.40;;
78013;SDS011;67222;50.182;8.734;2023-04-06T13:37:01;7.70;;;4.60;;
78013;SDS011;67222;50.182;8.734;2023-04-06T13:39:26;8.07;;;4.35;;
78013;SDS011;67222;50.182;8.734;2023-04-06T13:41:53;9.30;;;5.47;;
78013;SDS011;67222;50.182;8.734;2023-04-06T13:44:21;9.40;;;5.32;;
78013;SDS011;67222;50.182;8.734;2023-04-06T13:46:46;9.93;;;5.65;;
78013;SDS011;67222;50.182;8.734;2023-04-06T13:49:12;8.57;;;5.53;;
78013;SDS011;67222;50.182;8.734;2023-04-06T13:51:38;8.77;;;4.70;;
78013;SDS011;67222;50.182;8.734;2023-04-06T13:54:03;8.70;;;5.22;;
78013;SDS011;67222;50.182;8.734;2023-04-06T13:56:29;9.82;;;4.80;;
78013;SDS011;67222;50.182;8.734;2023-04-06T13:58:55;8.93;;;5.20;;
78013;SDS011;67222;50.182;8.734;2023-04-06T14:01:21;9.02;;;5.18;;
78013;SDS011;67222;50.182;8.734;2023-04-06T14:03:48;9.13;;;4.88;;
78013;SDS011;67222;50.182;8.734;2023-04-06T14:06:14;10.95;;;5.72;;
78013;SDS011;67222;50.182;8.734;2023-04-06T14:08:39;7.05;;;4.40;;
78013;SDS011;67222;50.182;8.734;2023-04-06T14:11:06;8.88;;;5.10;;
78013;SDS011;67222;50.182;8.734;2023-04-06T14:13:36;10.23;;;5.72;;
78013;SDS011;67222;50.182;8.734;2023-04-06T14:16:01;9.93;;;5.63;;
78013;SDS011;67222;50.182;8.734;2023-04-06T14:18:27;9.48;;;5.25;;
78013;SDS011;67222;50.182;8.734;2023-04-06T14:20:56;11.02;;;6.20;;
78013;SDS011;67222;50.182;8.734;2023-04-06T14:23:22;10.77;;;6.10;;
78013;SDS011;67222;50.182;8.734;2023-04-06T14:25:48;9.05;;;5.65;;
78013;SDS011;67222;50.182;8.734;2023-04-06T14:28:13;9.73;;;5.63;;
78013;SDS011;67222;50.182;8.734;2023-04-06T14:30:39;8.63;;;5.28;;
78013;SDS011;67222;50.182;8.734;2023-04-06T14:33:05;6.72;;;4.35;;
78013;SDS011;67222;50.182;8.734;2023-04-06T14:35:30;9.63;;;5.03;;
78013;SDS011;67222;50.182;8.734;2023-04-06T14:37:57;6.65;;;4.47;;
78013;SDS011;67222;50.182;8.734;2023-04-06T14:40:23;7.75;;;4.20;;
78013;SDS011;67222;50.182;8.734;2023-04-06T14:42:49;8.18;;;4.70;;
78013;SDS011;67222;50.182;8.734;2023-04-06T14:45:16;6.57;;;4.35;;
78013;SDS011;67222;50.182;8.734;2023-04-06T14:47:42;7.93;;;4.63;;
78013;SDS011;67222;50.182;8.734;2023-04-06T14:50:08;7.37;;;4.97;;
78013;SDS011;67222;50.182;8.734;2023-04-06T14:52:34;6.93;;;4.15;;
78013;SDS011;67222;50.182;8.734;2023-04-06T14:55:02;7.85;;;4.53;;
78013;SDS011;67222;50.182;8.734;2023-04-06T14:57:28;7.38;;;4.60;;
78013;SDS011;67222;50.182;8.734;2023-04-06T14:59:53;8.45;;;4.60;;
78013;SDS011;67222;50.182;8.734;2023-04-06T15:02:19;9.02;;;4.47;;
78013;SDS011;67222;50.182;8.734;2023-04-06T15:04:44;7.88;;;4.38;;
78013;SDS011;67222;50.182;8.734;2023-04-06T15:07:10;7.13;;;4.43;;
78013;SDS011;67222;50.182;8.734;2023-04-06T15:09:36;13.65;;;5.05;;
78013;SDS011;67222;50.182;8.734;2023-04-06T15:14:30;8.35;;;4.72;;
78013;SDS011;67222;50.182;8.734;2023-04-06T15:16:55;7.53;;;4.13;;
78013;SDS011;67222;50.182;8.734;2023-04-06T15:19:21;7.67;;;4.57;;
78013;SDS011;67222;50.182;8.734;2023-04-06T15:21:46;7.40;;;5.05;;
78013;SDS011;67222;50.182;8.734;2023-04-06T15:24:11;6.35;;;4.10;;
78013;SDS011;67222;50.182;8.734;2023-04-06T15:26:37;7.03;;;4.40;;
78013;SDS011;67222;50.182;8.734;2023-04-06T15:29:02;8.88;;;4.90;;
78013;SDS011;67222;50.182;8.734;2023-04-06T15:31:29;10.10;;;4.88;;
78013;SDS011;67222;50.182;8.734;2023-04-06T15:33:58;11.65;;;4.82;;
78013;SDS011;67222;50.182;8.734;2023-04-06T15:36:24;7.60;;;5.10;;
78013;SDS011;67222;50.182;8.734;2023-04-06T15:38:53;7.45;;;4.40;;
78013;SDS011;67222;50.182;8.734;2023-04-06T15:41:21;7.68;;;4.20;;
78013;SDS011;67222;50.182;8.734;2023-04-06T15:43:53;7.68;;;5.05;;
78013;SDS011;67222;50.182;8.734;2023-04-06T15:46:21;6.90;;;4.28;;
78013;SDS011;67222;50.182;8.734;2023-04-06T15:48:46;7.55;;;4.72;;
78013;SDS011;67222;50.182;8.734;2023-04-06T15:51:12;6.70;;;4.32;;
78013;SDS011;67222;50.182;8.734;2023-04-06T15:53:37;7.03;;;4.38;;
78013;SDS011;67222;50.182;8.734;2023-04-06T15:56:04;7.68;;;3.97;;
78013;SDS011;67222;50.182;8.734;2023-04-06T15:58:34;8.93;;;4.80;;
78013;SDS011;67222;50.182;8.734;2023-04-06T16:01:00;6.30;;;4.18;;
78013;SDS011;67222;50.182;8.734;2023-04-06T16:03:26;8.32;;;4.82;;
78013;SDS011;67222;50.182;8.734;2023-04-06T16:10:45;8.95;;;5.18;;
78013;SDS011;67222;50.182;8.734;2023-04-06T16:13:10;7.30;;;4.53;;
78013;SDS011;67222;50.182;8.734;2023-04-06T16:15:35;6.80;;;3.67;;
78013;SDS011;67222;50.182;8.734;2023-04-06T16:18:01;7.82;;;4.32;;
78013;SDS011;67222;50.182;8.734;2023-04-06T16:20:28;7.43;;;4.15;;
78013;SDS011;67222;50.182;8.734;2023-04-06T16:22:53;7.05;;;3.70;;
78013;SDS011;67222;50.182;8.734;2023-04-06T16:25:19;7.07;;;4.07;;
78013;SDS011;67222;50.182;8.734;2023-04-06T16:27:44;8.13;;;4.07;;
78013;SDS011;67222;50.182;8.734;2023-04-06T16:30:10;6.15;;;3.38;;
78013;SDS011;67222;50.182;8.734;2023-04-06T16:32:38;5.40;;;3.25;;
78013;SDS011;67222;50.182;8.734;2023-04-06T16:35:05;5.28;;;3.05;;
78013;SDS011;67222;50.182;8.734;2023-04-06T16:37:31;4.97;;;3.30;;
78013;SDS011;67222;50.182;8.734;2023-04-06T16:39:56;6.35;;;3.60;;
78013;SDS011;67222;50.182;8.734;2023-04-06T16:42:22;6.20;;;3.35;;
78013;SDS011;67222;50.182;8.734;2023-04-06T16:44:51;6.97;;;3.17;;
78013;SDS011;67222;50.182;8.734;2023-04-06T16:47:22;6.78;;;3.30;;
78013;SDS011;67222;50.182;8.734;2023-04-06T16:49:47;5.80;;;3.63;;
78013;SDS011;67222;50.182;8.734;2023-04-06T16:52:13;5.80;;;3.33;;
78013;SDS011;67222;50.182;8.734;2023-04-06T16:54:38;6.37;;;3.27;;
78013;SDS011;67222;50.182;8.734;2023-04-06T16:57:03;5.90;;;3.60;;
78013;SDS011;67222;50.182;8.734;2023-04-06T16:59:29;5.90;;;3.47;;
78013;SDS011;67222;50.182;8.734;2023-04-06T17:01:55;7.93;;;3.35;;
78013;SDS011;67222;50.182;8.734;2023-04-06T17:04:20;6.22;;;3.22;;
78013;SDS011;67222;50.182;8.734;2023-04-06T17:06:46;6.90;;;3.75;;
78013;SDS011;67222;50.182;8.734;2023-04-06T17:09:11;6.28;;;3.40;;
78013;SDS011;67222;50.182;8.734;2023-04-06T17:11:36;8.53;;;2.90;;
78013;SDS011;67222;50.182;8.734;2023-04-06T17:14:02;7.25;;;3.20;;
78013;SDS011;67222;50.182;8.734;2023-04-06T17:16:27;6.43;;;3.05;;
78013;SDS011;67222;50.182;8.734;2023-04-06T17:18:53;6.60;;;3.27;;
78013;SDS011;67222;50.182;8.734;2023-04-06T17:21:18;5.65;;;2.97;;
78013;SDS011;67222;50.182;8.734;2023-04-06T17:23:45;9.30;;;3.30;;
78013;SDS011;67222;50.182;8.734;2023-04-06T17:26:11;6.47;;;3.05;;
78013;SDS011;67222;50.182;8.734;2023-04-06T17:28:36;5.45;;;3.00;;
78013;SDS011;67222;50.182;8.734;2023-04-06T17:31:05;5.88;;;3.20;;
78013;SDS011;67222;50.182;8.734;2023-04-06T17:33:33;6.57;;;3.40;;
78013;SDS011;67222;50.182;8.734;2023-04-06T17:35:59;5.63;;;3.00;;
78013;SDS011;67222;50.182;8.734;2023-04-06T17:38:24;5.93;;;3.20;;
78013;SDS011;67222;50.182;8.734;2023-04-06T17:40:50;4.47;;;2.30;;
78013;SDS011;67222;50.182;8.734;2023-04-06T17:43:16;7.35;;;2.80;;
78013;SDS011;67222;50.182;8.734;2023-04-06T17:45:41;6.95;;;2.95;;
78013;SDS011;67222;50.182;8.734;2023-04-06T17:48:07;9.77;;;4.90;;
78013;SDS011;67222;50.182;8.734;2023-04-06T17:50:32;5.00;;;2.43;;
78013;SDS011;67222;50.182;8.734;2023-04-06T17:52:57;4.50;;;2.43;;
78013;SDS011;67222;50.182;8.734;2023-04-06T17:55:23;6.13;;;2.60;;
78013;SDS011;67222;50.182;8.734;2023-04-06T17:57:48;4.10;;;2.27;;
78013;SDS011;67222;50.182;8.734;2023-04-06T18:00:14;4.03;;;2.47;;
78013;SDS011;67222;50.182;8.734;2023-04-06T18:02:48;5.78;;;2.42;;
78013;SDS011;67222;50.182;8.734;2023-04-06T18:05:13;4.70;;;2.25;;
78013;SDS011;67222;50.182;8.734;2023-04-06T18:07:38;5.37;;;2.30;;
78013;SDS011;67222;50.182;8.734;2023-04-06T18:10:04;3.38;;;1.98;;
78013;SDS011;67222;50.182;8.734;2023-04-06T18:12:31;6.32;;;1.88;;
78013;SDS011;67222;50.182;8.734;2023-04-06T18:14:57;4.40;;;2.10;;
78013;SDS011;67222;50.182;8.734;2023-04-06T18:17:22;4.18;;;1.83;;
78013;SDS011;67222;50.182;8.734;2023-04-06T18:19:47;3.27;;;1.67;;
78013;SDS011;67222;50.182;8.734;2023-04-06T18:22:13;3.53;;;1.90;;
78013;SDS011;67222;50.182;8.734;2023-04-06T18:24:38;3.75;;;1.80;;
78013;SDS011;67222;50.182;8.734;2023-04-06T18:27:03;4.35;;;2.20;;
78013;SDS011;67222;50.182;8.734;2023-04-06T18:29:29;3.65;;;2.08;;
78013;SDS011;67222;50.182;8.734;2023-04-06T18:31:55;4.20;;;2.28;;
78013;SDS011;67222;50.182;8.734;2023-04-06T18:34:20;4.82;;;2.10;;
78013;SDS011;67222;50.182;8.734;2023-04-06T18:36:46;4.10;;;2.10;;
78013;SDS011;67222;50.182;8.734;2023-04-06T18:39:11;3.97;;;2.20;;
78013;SDS011;67222;50.182;8.734;2023-04-06T18:41:36;6.67;;;2.53;;
78013;SDS011;67222;50.182;8.734;2023-04-06T18:44:03;5.20;;;2.90;;
78013;SDS011;67222;50.182;8.734;2023-04-06T18:46:28;4.50;;;2.73;;
78013;SDS011;67222;50.182;8.734;2023-04-06T18:48:53;5.57;;;2.90;;
78013;SDS011;67222;50.182;8.734;2023-04-06T18:51:19;4.80;;;3.15;;
78013;SDS011;67222;50.182;8.734;2023-04-06T18:53:44;4.38;;;2.60;;
78013;SDS011;67222;50.182;8.734;2023-04-06T18:58:42;7.93;;;3.10;;
78013;SDS011;67222;50.182;8.734;2023-04-06T19:01:09;5.63;;;3.17;;
78013;SDS011;67222;50.182;8.734;2023-04-06T19:03:35;4.60;;;3.00;;
78013;SDS011;67222;50.182;8.734;2023-04-06T19:06:01;5.60;;;3.03;;
78013;SDS011;67222;50.182;8.734;2023-04-06T19:08:28;5.78;;;3.03;;
78013;SDS011;67222;50.182;8.734;2023-04-06T19:10:53;4.30;;;2.97;;
78013;SDS011;67222;50.182;8.734;2023-04-06T19:13:18;6.40;;;2.97;;
78013;SDS011;67222;50.182;8.734;2023-04-06T19:15:43;5.57;;;3.30;;
78013;SDS011;67222;50.182;8.734;2023-04-06T19:18:09;5.90;;;2.90;;
78013;SDS011;67222;50.182;8.734;2023-04-06T19:20:35;8.23;;;3.50;;
78013;SDS011;67222;50.182;8.734;2023-04-06T19:23:00;6.03;;;3.15;;
78013;SDS011;67222;50.182;8.734;2023-04-06T19:25:27;5.97;;;3.28;;
78013;SDS011;67222;50.182;8.734;2023-04-06T19:27:52;5.03;;;3.00;;
78013;SDS011;67222;50.182;8.734;2023-04-06T19:30:18;6.13;;;3.35;;